Wetterdaten: Woche 15.08.16 - 21.08.16 (KW33)
Datum Zeit Temp. Aussen Temp. o. S. +5cm Feuchte Auss BlattFeu 1 Luftdruck Regen Sonnenschein Regendauer Solar Windben Empfang
15.08.2016 00:00 15,6 C 13,8 C 12,6 C 86 % 1 lf 1023,7 hPa 0,0 l/m 0,00 h 0,00 h 0 W/m 4,1 km/h (1 Bft) 93,66 %
15.08.2016 01:00 14,6 C 12,9 C 11,7 C 88 % 3 lf 1023,9 hPa 0,0 l/m 0,00 h 0,00 h 0 W/m 4,1 km/h (1 Bft) 97,22 %
15.08.2016 02:00 13,9 C 13,0 C 12,3 C 90 % 3 lf 1023,9 hPa 0,0 l/m 0,00 h 0,00 h 0 W/m 3,8 km/h (1 Bft) 97,43 %
15.08.2016 03:00 14,2 C 14,1 C 13,3 C 93 % 2 lf 1023,7 hPa 0,0 l/m 0,00 h 0,00 h 0 W/m 6,0 km/h (2 Bft) 95,23 %
15.08.2016 04:00 14,4 C 14,4 C 13,3 C 94 % 2 lf 1023,7 hPa 0,0 l/m 0,00 h 0,00 h 0 W/m 7,2 km/h (2 Bft) 96,78 %
15.08.2016 05:00 14,4 C 14,1 C 12,9 C 93 % 2 lf 1023,6 hPa 0,0 l/m 0,00 h 0,00 h 0 W/m 6,0 km/h (2 Bft) 94,74 %
15.08.2016 06:00 14,2 C 14,0 C 12,9 C 93 % 1 lf 1023,6 hPa 0,0 l/m 0,00 h 0,00 h 14 W/m 7,3 km/h (2 Bft) 96,58 %
15.08.2016 07:00 14,3 C 15,1 C 13,7 C 93 % 1 lf 1023,7 hPa 0,0 l/m 0,27 h 0,00 h 74 W/m 9,3 km/h (2 Bft) 97,58 %
15.08.2016 08:00 14,9 C 16,2 C 14,4 C 91 % 1 lf 1023,8 hPa 0,0 l/m 0,17 h 0,00 h 146 W/m 11,9 km/h (2 Bft) 94,38 %
15.08.2016 09:00 16,9 C 24,4 C 17,8 C 85 % 0 lf 1023,8 hPa 0,0 l/m 0,87 h 0,00 h 469 W/m 17,1 km/h (3 Bft) 96,29 %
15.08.2016 10:00 19,4 C 28,5 C 23,8 C 75 % 0 lf 1023,5 hPa 0,0 l/m 1,00 h 0,00 h 614 W/m 16,1 km/h (3 Bft) 98,29 %
15.08.2016 11:00 20,9 C 25,8 C 22,2 C 67 % 0 lf 1023,2 hPa 0,0 l/m 0,57 h 0,00 h 457 W/m 14,4 km/h (3 Bft) 92,59 %
15.08.2016 12:00 20,9 C 27,3 C 21,9 C 65 % 0 lf 1023,0 hPa 0,0 l/m 0,57 h 0,00 h 538 W/m 15,0 km/h (3 Bft) 96,87 %
15.08.2016 13:00 22,7 C 30,4 C 23,5 C 60 % 0 lf 1022,7 hPa 0,0 l/m 0,87 h 0,00 h 743 W/m 17,0 km/h (3 Bft) 96,65 %
15.08.2016 14:00 23,0 C 30,6 C 25,3 C 60 % 0 lf 1022,6 hPa 0,0 l/m 0,83 h 0,00 h 796 W/m 18,6 km/h (3 Bft) 95,36 %
15.08.2016 15:00 23,2 C 28,8 C 26,4 C 58 % 0 lf 1022,2 hPa 0,0 l/m 0,67 h 0,00 h 602 W/m 16,4 km/h (3 Bft) 94,87 %
15.08.2016 16:00 23,1 C 28,5 C 24,0 C 58 % 0 lf 1021,8 hPa 0,0 l/m 0,83 h 0,00 h 540 W/m 19,8 km/h (3 Bft) 97,08 %
15.08.2016 17:00 22,9 C 26,5 C 21,8 C 58 % 0 lf 1021,3 hPa 0,0 l/m 1,00 h 0,00 h 486 W/m 21,1 km/h (4 Bft) 96,94 %
15.08.2016 18:00 22,2 C 22,9 C 20,4 C 59 % 0 lf 1020,9 hPa 0,0 l/m 1,00 h 0,00 h 320 W/m 17,9 km/h (3 Bft) 94,45 %
15.08.2016 19:00 21,7 C 21,8 C 19,5 C 60 % 0 lf 1020,6 hPa 0,0 l/m 0,50 h 0,00 h 113 W/m 14,7 km/h (3 Bft) 96,65 %
15.08.2016 20:00 20,6 C 19,7 C 17,8 C 63 % 0 lf 1020,6 hPa 0,0 l/m 0,07 h 0,00 h 25 W/m 10,4 km/h (2 Bft) 98,07 %
15.08.2016 21:00 18,9 C 17,4 C 16,0 C 69 % 0 lf 1020,7 hPa 0,0 l/m 0,00 h 0,00 h 5 W/m 8,4 km/h (2 Bft) 93,31 %
15.08.2016 22:00 17,2 C 15,1 C 13,2 C 74 % 0 lf 1020,8 hPa 0,0 l/m 0,00 h 0,00 h 5 W/m 5,1 km/h (1 Bft) 96,94 %
15.08.2016 23:00 15,7 C 13,5 C 11,8 C 79 % 0 lf 1020,8 hPa 0,0 l/m 0,00 h 0,00 h 0 W/m 3,4 km/h (1 Bft) 97,93 %
16.08.2016 00:00 14,4 C 12,3 C 10,9 C 83 % 1 lf 1020,9 hPa 0,0 l/m 0,00 h 0,00 h 0 W/m 0,4 km/h (0 Bft) 95,11 %
16.08.2016 01:00 13,4 C 11,5 C 10,4 C 86 % 1 lf 1020,7 hPa 0,0 l/m 0,00 h 0,00 h 0 W/m 0,0 km/h (0 Bft) 94,86 %
16.08.2016 02:00 12,5 C 11,0 C 10,0 C 89 % 2 lf 1020,2 hPa 0,0 l/m 0,00 h 0,00 h 0 W/m 0,7 km/h (0 Bft) 97,86 %
16.08.2016 03:00 12,1 C 10,8 C 9,6 C 90 % 3 lf 1019,9 hPa 0,0 l/m 0,00 h 0,00 h 0 W/m 1,0 km/h (0 Bft) 96,05 %
16.08.2016 04:00 11,6 C 10,3 C 9,2 C 91 % 8 lf 1019,7 hPa 0,0 l/m 0,00 h 0,00 h 0 W/m 2,1 km/h (1 Bft) 97,32 %
16.08.2016 05:00 11,1 C 9,7 C 8,8 C 91 % 15 lf 1019,4 hPa 0,0 l/m 0,00 h 0,00 h 0 W/m 0,0 km/h (0 Bft) 94,45 %
16.08.2016 06:00 10,7 C 9,5 C 8,5 C 92 % 15 lf 1019,2 hPa 0,0 l/m 0,17 h 0,00 h 15 W/m 0,3 km/h (0 Bft) 96,75 %
16.08.2016 07:00 11,1 C 11,4 C 10,2 C 94 % 12 lf 1019,1 hPa 0,0 l/m 1,00 h 0,00 h 128 W/m 4,3 km/h (1 Bft) 96,65 %
16.08.2016 08:00 13,3 C 15,6 C 13,4 C 95 % 1 lf 1018,9 hPa 0,0 l/m 0,95 h 0,00 h 243 W/m 11,7 km/h (2 Bft) 94,11 %
16.08.2016 09:00 16,4 C 24,9 C 17,1 C 85 % 0 lf 1018,7 hPa 0,0 l/m 1,00 h 0,00 h 433 W/m 12,9 km/h (3 Bft) 95,02 %
16.08.2016 10:00 19,4 C 27,8 C 22,7 C 73 % 0 lf 1018,5 hPa 0,0 l/m 1,00 h 0,00 h 579 W/m 16,9 km/h (3 Bft) 96,37 %
16.08.2016 11:00 21,4 C 29,4 C 24,9 C 65 % 0 lf 1018,2 hPa 0,0 l/m 1,00 h 0,00 h 714 W/m 20,3 km/h (4 Bft) 95,92 %
16.08.2016 12:00 22,9 C 30,4 C 25,5 C 59 % 0 lf 1018,0 hPa 0,0 l/m 0,97 h 0,00 h 805 W/m 18,1 km/h (3 Bft) 96,01 %
16.08.2016 13:00 24,1 C 31,6 C 23,6 C 56 % 0 lf 1017,6 hPa 0,0 l/m 1,00 h 0,00 h 1178 W/m 19,0 km/h (3 Bft) 95,73 %
16.08.2016 14:00 24,7 C 31,6 C 27,7 C 54 % 0 lf 1017,3 hPa 0,0 l/m 1,00 h 0,00 h 802 W/m 18,5 km/h (3 Bft) 95,87 %
16.08.2016 15:00 24,6 C 31,9 C 29,7 C 53 % 0 lf 1016,7 hPa 0,0 l/m 1,00 h 0,00 h 732 W/m 19,5 km/h (3 Bft) 95,51 %
16.08.2016 16:00 24,3 C 30,8 C 26,2 C 53 % 0 lf 1016,2 hPa 0,0 l/m 1,00 h 0,00 h 619 W/m 18,9 km/h (3 Bft) 97,01 %
16.08.2016 17:00 23,9 C 27,1 C 22,6 C 56 % 0 lf 1015,7 hPa 0,0 l/m 1,00 h 0,00 h 472 W/m 21,9 km/h (4 Bft) 94,44 %
16.08.2016 18:00 23,1 C 23,6 C 21,2 C 57 % 0 lf 1015,4 hPa 0,0 l/m 1,00 h 0,00 h 312 W/m 21,0 km/h (4 Bft) 97,72 %
16.08.2016 19:00 22,5 C 22,4 C 20,3 C 60 % 0 lf 1015,1 hPa 0,0 l/m 0,53 h 0,00 h 133 W/m 14,8 km/h (3 Bft) 96,02 %
16.08.2016 20:00 21,2 C 20,3 C 18,6 C 64 % 0 lf 1015,1 hPa 0,0 l/m 0,00 h 0,00 h 22 W/m 12,4 km/h (3 Bft) 95,23 %
16.08.2016 21:00 19,3 C 18,3 C 16,8 C 70 % 0 lf 1015,3 hPa 0,0 l/m 0,00 h 0,00 h 7 W/m 10,0 km/h (2 Bft) 97,22 %
16.08.2016 22:00 17,9 C 16,8 C 15,4 C 75 % 0 lf 1015,5 hPa 0,0 l/m 0,00 h 0,00 h 4 W/m 8,3 km/h (2 Bft) 96,15 %
16.08.2016 23:00 16,9 C 16,1 C 14,5 C 77 % 0 lf 1015,4 hPa 0,0 l/m 0,00 h 0,00 h 0 W/m 11,5 km/h (2 Bft) 94,30 %
17.08.2016 00:00 16,9 C 16,3 C 14,6 C 75 % 0 lf 1015,4 hPa 0,0 l/m 0,00 h 0,00 h 0 W/m 14,8 km/h (3 Bft) 97,36 %
17.08.2016 01:00 16,2 C 15,4 C 13,3 C 77 % 0 lf 1015,3 hPa 0,0 l/m 0,00 h 0,00 h 0 W/m 9,4 km/h (2 Bft) 97,01 %
17.08.2016 02:00 15,4 C 14,1 C 12,2 C 79 % 0 lf 1015,2 hPa 0,0 l/m 0,00 h 0,00 h 0 W/m 6,4 km/h (2 Bft) 94,37 %
17.08.2016 03:00 14,5 C 13,3 C 11,3 C 82 % 0 lf 1015,1 hPa 0,0 l/m 0,00 h 0,00 h 0 W/m 6,4 km/h (2 Bft) 96,79 %
17.08.2016 04:00 13,9 C 13,3 C 11,6 C 85 % 0 lf 1014,7 hPa 0,0 l/m 0,00 h 0,00 h 0 W/m 10,3 km/h (2 Bft) 97,49 %
17.08.2016 05:00 13,7 C 13,3 C 11,7 C 87 % 1 lf 1014,5 hPa 0,0 l/m 0,00 h 0,00 h 0 W/m 11,3 km/h (2 Bft) 94,95 %
17.08.2016 06:00 13,4 C 12,9 C 11,5 C 87 % 1 lf 1014,2 hPa 0,0 l/m 0,00 h 0,00 h 13 W/m 10,5 km/h (2 Bft) 97,01 %
17.08.2016 07:00 13,4 C 13,9 C 12,2 C 89 % 1 lf 1014,3 hPa 0,0 l/m 0,93 h 0,00 h 115 W/m 9,4 km/h (2 Bft) 94,37 %
17.08.2016 08:00 14,5 C 16,3 C 13,9 C 87 % 0 lf 1014,1 hPa 0,0 l/m 1,00 h 0,00 h 292 W/m 9,9 km/h (2 Bft) 97,36 %
17.08.2016 09:00 17,7 C 25,9 C 17,4 C 77 % 0 lf 1013,9 hPa 0,0 l/m 1,00 h 0,00 h 460 W/m 12,4 km/h (3 Bft) 97,22 %
17.08.2016 10:00 20,9 C 28,5 C 25,9 C 67 % 0 lf 1013,7 hPa 0,0 l/m 1,00 h 0,00 h 611 W/m 14,4 km/h (3 Bft) 93,67 %
17.08.2016 11:00 23,0 C 30,6 C 27,2 C 61 % 0 lf 1013,4 hPa 0,0 l/m 1,00 h 0,00 h 728 W/m 15,3 km/h (3 Bft) 96,58 %
17.08.2016 12:00 24,6 C 31,8 C 27,4 C 57 % 0 lf 1013,1 hPa 0,0 l/m 0,93 h 0,00 h 764 W/m 14,9 km/h (3 Bft) 98,01 %
17.08.2016 13:00 25,6 C 33,0 C 24,9 C 54 % 0 lf 1012,6 hPa 0,0 l/m 1,00 h 0,00 h 824 W/m 15,1 km/h (3 Bft) 93,52 %
17.08.2016 14:00 26,2 C 33,6 C 29,1 C 50 % 0 lf 1012,1 hPa 0,0 l/m 1,00 h 0,00 h 803 W/m 16,2 km/h (3 Bft) 97,08 %
17.08.2016 15:00 26,3 C 33,2 C 31,9 C 49 % 0 lf 1011,7 hPa 0,0 l/m 1,00 h 0,00 h 797 W/m 16,0 km/h (3 Bft) 96,73 %
17.08.2016 16:00 26,0 C 32,6 C 27,6 C 49 % 0 lf 1011,3 hPa 0,0 l/m 1,00 h 0,00 h 620 W/m 17,8 km/h (3 Bft) 96,08 %
17.08.2016 17:00 25,7 C 29,1 C 24,0 C 49 % 0 lf 1010,9 hPa 0,0 l/m 1,00 h 0,00 h 481 W/m 15,2 km/h (3 Bft) 95,09 %
17.08.2016 18:00 25,0 C 25,6 C 22,7 C 50 % 0 lf 1010,5 hPa 0,0 l/m 1,00 h 0,00 h 319 W/m 15,3 km/h (3 Bft) 96,44 %
17.08.2016 19:00 24,3 C 24,2 C 21,6 C 50 % 0 lf 1010,4 hPa 0,0 l/m 0,33 h 0,00 h 100 W/m 13,4 km/h (3 Bft) 98,22 %
17.08.2016 20:00 23,0 C 21,6 C 19,1 C 53 % 0 lf 1010,4 hPa 0,0 l/m 0,30 h 0,00 h 27 W/m 7,5 km/h (2 Bft) 94,08 %
17.08.2016 21:00 20,8 C 18,7 C 15,7 C 56 % 0 lf 1010,8 hPa 0,0 l/m 0,00 h 0,00 h 8 W/m 6,5 km/h (2 Bft) 97,15 %
17.08.2016 22:00 18,6 C 16,0 C 13,5 C 63 % 0 lf 1011,0 hPa 0,0 l/m 0,00 h 0,00 h 0 W/m 3,3 km/h (1 Bft) 97,43 %
17.08.2016 23:00 16,7 C 14,2 C 12,4 C 71 % 0 lf 1010,8 hPa 0,0 l/m 0,00 h 0,00 h 3 W/m 0,0 km/h (0 Bft) 94,97 %
18.08.2016 00:00 15,2 C 13,0 C 11,5 C 77 % 0 lf 1010,6 hPa 0,0 l/m 0,00 h 0,00 h 4 W/m 0,0 km/h (0 Bft) 95,22 %
18.08.2016 01:00 14,1 C 12,2 C 10,8 C 81 % 1 lf 1010,4 hPa 0,0 l/m 0,00 h 0,00 h 0 W/m 0,0 km/h (0 Bft) 96,87 %
18.08.2016 02:00 13,3 C 11,7 C 10,4 C 83 % 1 lf 1010,1 hPa 0,0 l/m 0,00 h 0,00 h 5 W/m 0,0 km/h (0 Bft) 96,72 %
18.08.2016 03:00 12,7 C 11,2 C 9,9 C 85 % 1 lf 1009,7 hPa 0,0 l/m 0,00 h 0,00 h 5 W/m 0,0 km/h (0 Bft) 95,16 %
18.08.2016 04:00 12,2 C 10,7 C 9,4 C 87 % 1 lf 1009,2 hPa 0,0 l/m 0,00 h 0,00 h 5 W/m 0,0 km/h (0 Bft) 88,57 %
18.08.2016 05:00 11,6 C 10,2 C 8,9 C 88 % 2 lf 1008,9 hPa 0,0 l/m 0,00 h 0,00 h 5 W/m 0,0 km/h (0 Bft) 97,15 %
18.08.2016 06:00 11,1 C 9,7 C 8,9 C 89 % 3 lf 1008,8 hPa 0,0 l/m 0,00 h 0,00 h 14 W/m 0,0 km/h (0 Bft) 96,36 %
18.08.2016 07:00 11,1 C 11,2 C 9,9 C 91 % 2 lf 1008,9 hPa 0,0 l/m 0,97 h 0,00 h 118 W/m 0,8 km/h (0 Bft) 96,79 %
18.08.2016 08:00 12,8 C 15,4 C 12,8 C 94 % 1 lf 1008,8 hPa 0,0 l/m 1,00 h 0,00 h 291 W/m 6,8 km/h (2 Bft) 96,72 %
18.08.2016 09:00 17,2 C 26,8 C 17,2 C 78 % 0 lf 1008,7 hPa 0,0 l/m 1,00 h 0,00 h 459 W/m 9,8 km/h (2 Bft) 93,89 %
18.08.2016 10:00 21,6 C 30,2 C 26,4 C 63 % 0 lf 1008,7 hPa 0,0 l/m 1,00 h 0,00 h 608 W/m 12,6 km/h (3 Bft) 97,93 %
18.08.2016 11:00 23,5 C 32,8 C 27,7 C 58 % 0 lf 1008,8 hPa 0,0 l/m 1,00 h 0,00 h 697 W/m 10,3 km/h (2 Bft) 95,51 %
18.08.2016 12:00 25,0 C 34,3 C 27,3 C 54 % 0 lf 1008,3 hPa 0,0 l/m 0,97 h 0,00 h 785 W/m 15,3 km/h (3 Bft) 95,69 %
18.08.2016 13:00 26,7 C 36,6 C 26,1 C 50 % 0 lf 1008,1 hPa 0,0 l/m 1,00 h 0,00 h 867 W/m 12,0 km/h (2 Bft) 97,22 %
18.08.2016 14:00 28,0 C 35,1 C 29,7 C 47 % 0 lf 1007,8 hPa 0,0 l/m 1,00 h 0,00 h 817 W/m 8,6 km/h (2 Bft) 96,66 %
18.08.2016 15:00 27,6 C 36,3 C 32,3 C 46 % 0 lf 1007,4 hPa 0,0 l/m 1,00 h 0,00 h 870 W/m 9,8 km/h (2 Bft) 94,94 %
18.08.2016 16:00 27,8 C 34,3 C 29,2 C 46 % 0 lf 1007,3 hPa 0,0 l/m 1,00 h 0,00 h 525 W/m 11,3 km/h (2 Bft) 97,01 %
18.08.2016 17:00 27,1 C 30,0 C 25,8 C 48 % 0 lf 1007,2 hPa 0,0 l/m 1,00 h 0,00 h 448 W/m 14,9 km/h (3 Bft) 95,94 %
18.08.2016 18:00 25,9 C 26,6 C 23,7 C 51 % 0 lf 1007,4 hPa 0,0 l/m 1,00 h 0,00 h 344 W/m 17,5 km/h (3 Bft) 97,44 %
18.08.2016 19:00 24,8 C 24,5 C 22,5 C 54 % 0 lf 1007,7 hPa 0,0 l/m 0,33 h 0,00 h 94 W/m 12,1 km/h (2 Bft) 94,09 %
18.08.2016 20:00 23,3 C 22,1 C 20,2 C 58 % 0 lf 1008,2 hPa 0,0 l/m 0,43 h 0,00 h 29 W/m 8,4 km/h (2 Bft) 98,08 %
18.08.2016 21:00 21,5 C 19,3 C 16,7 C 62 % 0 lf 1008,7 hPa 0,0 l/m 0,00 h 0,00 h 17 W/m 5,7 km/h (1 Bft) 97,04 %
18.08.2016 22:00 19,6 C 17,4 C 14,8 C 67 % 0 lf 1008,9 hPa 0,0 l/m 0,00 h 0,00 h 2 W/m 4,2 km/h (1 Bft) 93,66 %
18.08.2016 23:00 18,0 C 15,6 C 13,6 C 73 % 0 lf 1009,1 hPa 0,0 l/m 0,00 h 0,00 h 3 W/m 0,6 km/h (0 Bft) 97,58 %
19.08.2016 00:00 16,6 C 14,6 C 12,6 C 77 % 0 lf 1009,2 hPa 0,0 l/m 0,00 h 0,00 h 2 W/m 0,0 km/h (0 Bft) 97,55 %
19.08.2016 01:00 15,6 C 13,7 C 12,0 C 80 % 1 lf 1009,2 hPa 0,0 l/m 0,00 h 0,00 h 3 W/m 0,8 km/h (0 Bft) 94,23 %
19.08.2016 02:00 14,6 C 13,0 C 11,5 C 83 % 1 lf 1009,0 hPa 0,0 l/m 0,00 h 0,00 h 4 W/m 0,0 km/h (0 Bft) 96,52 %
19.08.2016 03:00 13,8 C 12,3 C 10,8 C 85 % 1 lf 1008,9 hPa 0,0 l/m 0,00 h 0,00 h 5 W/m 0,0 km/h (0 Bft) 95,73 %
19.08.2016 04:00 13,1 C 11,7 C 10,3 C 87 % 2 lf 1008,7 hPa 0,0 l/m 0,00 h 0,00 h 5 W/m 0,0 km/h (0 Bft) 96,55 %
19.08.2016 05:00 12,6 C 11,0 C 9,9 C 88 % 3 lf 1008,7 hPa 0,0 l/m 0,00 h 0,00 h 5 W/m 0,0 km/h (0 Bft) 97,36 %
19.08.2016 06:00 12,0 C 10,9 C 9,8 C 90 % 5 lf 1008,8 hPa 0,0 l/m 0,13 h 0,00 h 13 W/m 0,4 km/h (0 Bft) 95,17 %
19.08.2016 07:00 11,9 C 12,4 C 10,8 C 92 % 3 lf 1009,1 hPa 0,0 l/m 0,97 h 0,00 h 106 W/m 0,8 km/h (0 Bft) 95,45 %
19.08.2016 08:00 13,4 C 16,0 C 13,8 C 95 % 1 lf 1009,4 hPa 0,0 l/m 1,00 h 0,00 h 256 W/m 6,5 km/h (2 Bft) 96,30 %
19.08.2016 09:00 17,0 C 24,3 C 17,5 C 87 % 0 lf 1009,3 hPa 0,0 l/m 1,00 h 0,00 h 410 W/m 7,3 km/h (2 Bft) 97,72 %
19.08.2016 10:00 21,3 C 29,0 C 26,2 C 71 % 0 lf 1009,3 hPa 0,0 l/m 1,00 h 0,00 h 555 W/m 8,1 km/h (2 Bft) 94,95 %
19.08.2016 11:00 24,1 C 31,6 C 28,5 C 64 % 0 lf 1009,2 hPa 0,0 l/m 1,00 h 0,00 h 619 W/m 8,8 km/h (2 Bft) 97,01 %
19.08.2016 12:00 26,0 C 32,1 C 29,1 C 55 % 0 lf 1008,7 hPa 0,0 l/m 0,97 h 0,00 h 724 W/m 13,5 km/h (3 Bft) 96,66 %
19.08.2016 13:00 27,4 C 32,7 C 28,1 C 51 % 0 lf 1008,4 hPa 0,0 l/m 1,00 h 0,00 h 722 W/m 16,0 km/h (3 Bft) 95,58 %
19.08.2016 14:00 27,5 C 30,3 C 28,7 C 52 % 0 lf 1008,0 hPa 0,0 l/m 0,70 h 0,00 h 508 W/m 14,6 km/h (3 Bft) 96,73 %
19.08.2016 15:00 26,7 C 27,7 C 27,4 C 55 % 0 lf 1007,7 hPa 0,0 l/m 0,07 h 0,00 h 266 W/m 13,8 km/h (3 Bft) 95,03 %
19.08.2016 16:00 25,9 C 25,8 C 24,0 C 61 % 1 lf 1007,7 hPa 0,0 l/m 0,00 h 0,23 h 143 W/m 14,6 km/h (3 Bft) 97,67 %
19.08.2016 17:00 24,3 C 25,1 C 23,9 C 69 % 0 lf 1007,8 hPa 0,0 l/m 0,00 h 0,00 h 168 W/m 15,8 km/h (3 Bft) 95,78 %
19.08.2016 18:00 24,2 C 24,7 C 23,3 C 71 % 0 lf 1007,8 hPa 0,0 l/m 0,00 h 0,00 h 102 W/m 9,1 km/h (2 Bft) 94,68 %
19.08.2016 19:00 23,7 C 23,6 C 22,2 C 71 % 0 lf 1007,8 hPa 0,0 l/m 0,00 h 0,00 h 42 W/m 10,1 km/h (2 Bft) 97,72 %
19.08.2016 20:00 23,3 C 23,1 C 21,2 C 73 % 0 lf 1008,0 hPa 0,0 l/m 0,00 h 0,00 h 10 W/m 12,0 km/h (2 Bft) 95,30 %
19.08.2016 21:00 22,6 C 21,9 C 20,2 C 76 % 2 lf 1008,6 hPa 0,0 l/m 0,00 h 0,47 h 5 W/m 17,2 km/h (3 Bft) 94,83 %
19.08.2016 22:00 20,4 C 19,1 C 17,1 C 84 % 9 lf 1009,0 hPa 0,0 l/m 0,00 h 0,63 h 5 W/m 15,8 km/h (3 Bft) 98,55 %
19.08.2016 23:00 19,3 C 19,0 C 17,5 C 85 % 0 lf 1009,2 hPa 0,0 l/m 0,00 h 0,07 h 5 W/m 13,5 km/h (3 Bft) 95,21 %
20.08.2016 00:00 18,9 C 18,9 C 17,4 C 75 % 0 lf 1009,3 hPa 0,0 l/m 0,00 h 0,00 h 5 W/m 13,0 km/h (3 Bft) 94,50 %
20.08.2016 01:00 19,0 C 18,9 C 17,2 C 75 % 0 lf 1009,4 hPa 0,0 l/m 0,00 h 0,00 h 5 W/m 11,7 km/h (2 Bft) 97,03 %
20.08.2016 02:00 18,9 C 18,9 C 17,2 C 77 % 0 lf 1009,3 hPa 0,0 l/m 0,00 h 0,03 h 5 W/m 16,1 km/h (3 Bft) 96,70 %
20.08.2016 03:00 18,6 C 18,4 C 17,2 C 79 % 0 lf 1009,4 hPa 0,0 l/m 0,00 h 0,00 h 5 W/m 14,6 km/h (3 Bft) 93,96 %
20.08.2016 04:00 18,2 C 17,9 C 16,7 C 81 % 0 lf 1009,6 hPa 0,0 l/m 0,00 h 0,00 h 5 W/m 12,9 km/h (3 Bft) 97,23 %
20.08.2016 05:00 17,8 C 17,6 C 16,4 C 82 % 0 lf 1009,6 hPa 0,0 l/m 0,00 h 0,00 h 5 W/m 12,8 km/h (3 Bft) 96,59 %
20.08.2016 06:00 17,2 C 16,9 C 15,7 C 86 % 0 lf 1009,8 hPa 0,0 l/m 0,00 h 0,00 h 11 W/m 13,3 km/h (3 Bft) 96,39 %
20.08.2016 07:00 17,1 C 17,5 C 16,3 C 88 % 0 lf 1010,1 hPa 0,0 l/m 0,13 h 0,00 h 62 W/m 11,2 km/h (2 Bft) 94,17 %
20.08.2016 08:00 17,6 C 18,4 C 17,6 C 88 % 0 lf 1010,2 hPa 0,0 l/m 0,20 h 0,00 h 103 W/m 12,3 km/h (3 Bft) 97,86 %
20.08.2016 09:00 18,1 C 19,3 C 18,5 C 88 % 0 lf 1010,5 hPa 0,0 l/m 0,00 h 0,00 h 144 W/m 13,2 km/h (3 Bft) 96,34 %
20.08.2016 10:00 19,4 C 23,6 C 21,9 C 83 % 0 lf 1010,6 hPa 0,0 l/m 0,67 h 0,00 h 391 W/m 18,5 km/h (3 Bft) 95,02 %
20.08.2016 11:00 21,1 C 27,4 C 25,0 C 75 % 0 lf 1010,6 hPa 0,0 l/m 0,73 h 0,00 h 511 W/m 22,2 km/h (4 Bft) 97,17 %
20.08.2016 12:00 21,9 C 24,8 C 23,7 C 69 % 0 lf 1010,7 hPa 0,0 l/m 0,17 h 0,00 h 326 W/m 23,0 km/h (4 Bft) 97,13 %
20.08.2016 13:00 21,3 C 23,1 C 22,4 C 71 % 0 lf 1011,0 hPa 0,0 l/m 0,03 h 0,03 h 252 W/m 20,8 km/h (4 Bft) 94,32 %
20.08.2016 14:00 21,8 C 25,7 C 25,3 C 70 % 0 lf 1010,9 hPa 0,0 l/m 0,43 h 0,17 h 491 W/m 19,0 km/h (3 Bft) 98,30 %
20.08.2016 15:00 23,5 C 28,5 C 26,9 C 60 % 0 lf 1010,8 hPa 0,0 l/m 0,77 h 0,00 h 623 W/m 21,1 km/h (4 Bft) 95,17 %
20.08.2016 16:00 25,0 C 30,0 C 26,1 C 50 % 0 lf 1010,8 hPa 0,0 l/m 0,93 h 0,00 h 611 W/m 25,7 km/h (4 Bft) 95,16 %
20.08.2016 17:00 24,0 C 25,8 C 23,1 C 52 % 0 lf 1010,9 hPa 0,0 l/m 0,57 h 0,00 h 326 W/m 22,4 km/h (4 Bft) 95,58 %
20.08.2016 18:00 23,2 C 23,9 C 21,4 C 56 % 0 lf 1011,1 hPa 0,0 l/m 0,57 h 0,00 h 218 W/m 17,2 km/h (3 Bft) 97,02 %
20.08.2016 19:00 22,3 C 22,4 C 20,1 C 57 % 0 lf 1011,2 hPa 0,0 l/m 0,50 h 0,00 h 90 W/m 12,1 km/h (2 Bft) 95,35 %
20.08.2016 20:00 20,4 C 16,5 C 15,3 C 73 % 14 lf 1011,6 hPa 1,2 l/m 0,53 h 0,33 h 35 W/m 11,2 km/h (2 Bft) 95,38 %
20.08.2016 21:00 17,3 C 15,8 C 14,4 C 89 % 14 lf 1012,2 hPa 0,0 l/m 0,00 h 0,00 h 5 W/m 6,9 km/h (2 Bft) 95,85 %
20.08.2016 22:00 16,6 C 15,2 C 13,9 C 88 % 12 lf 1013,2 hPa 0,2 l/m 0,00 h 0,47 h 0 W/m 18,0 km/h (3 Bft) 97,02 %
20.08.2016 23:00 16,2 C 15,0 C 13,8 C 89 % 1 lf 1013,3 hPa 0,0 l/m 0,00 h 0,00 h 0 W/m 6,5 km/h (2 Bft) 96,79 %
21.08.2016 00:00 15,8 C 14,8 C 13,0 C 89 % 1 lf 1013,4 hPa 0,0 l/m 0,00 h 0,00 h 0 W/m 10,5 km/h (2 Bft) 94,01 %
21.08.2016 01:00 15,3 C 15,0 C 12,8 C 90 % 2 lf 1013,4 hPa 0,0 l/m 0,00 h 0,00 h 0 W/m 11,6 km/h (2 Bft) 96,35 %
21.08.2016 02:00 15,1 C 15,0 C 13,3 C 89 % 1 lf 1013,5 hPa 0,0 l/m 0,00 h 0,03 h 0 W/m 12,2 km/h (2 Bft) 97,95 %
21.08.2016 03:00 15,3 C 15,3 C 13,4 C 87 % 1 lf 1013,5 hPa 0,0 l/m 0,00 h 0,00 h 0 W/m 12,8 km/h (3 Bft) 94,45 %
21.08.2016 04:00 15,4 C 15,6 C 13,9 C 85 % 0 lf 1013,6 hPa 0,0 l/m 0,00 h 0,00 h 0 W/m 15,8 km/h (3 Bft) 96,38 %
21.08.2016 05:00 15,6 C 15,6 C 13,9 C 83 % 0 lf 1013,7 hPa 0,0 l/m 0,00 h 0,00 h 0 W/m 16,6 km/h (3 Bft) 96,79 %
21.08.2016 06:00 15,4 C 15,5 C 13,8 C 83 % 0 lf 1013,8 hPa 0,0 l/m 0,30 h 0,00 h 23 W/m 16,5 km/h (3 Bft) 95,28 %
21.08.2016 07:00 15,6 C 16,0 C 14,4 C 83 % 0 lf 1013,9 hPa 0,0 l/m 0,43 h 0,00 h 56 W/m 22,2 km/h (4 Bft) 97,86 %
21.08.2016 08:00 15,9 C 16,6 C 15,1 C 82 % 0 lf 1014,4 hPa 0,0 l/m 0,00 h 0,00 h 82 W/m 22,5 km/h (4 Bft) 95,14 %
21.08.2016 09:00 16,1 C 16,3 C 14,4 C 83 % 11 lf 1014,6 hPa 0,2 l/m 0,23 h 0,70 h 159 W/m 28,1 km/h (4 Bft) 95,11 %
21.08.2016 10:00 15,4 C 15,6 C 14,1 C 90 % 9 lf 1015,1 hPa 0,0 l/m 0,00 h 0,90 h 150 W/m 22,9 km/h (4 Bft) 98,12 %
21.08.2016 11:00 16,2 C 18,7 C 17,8 C 90 % 0 lf 1015,4 hPa 0,0 l/m 0,57 h 0,00 h 314 W/m 23,2 km/h (4 Bft) 95,68 %
21.08.2016 12:00 17,1 C 18,6 C 17,9 C 86 % 0 lf 1015,7 hPa 0,0 l/m 0,00 h 0,00 h 238 W/m 24,6 km/h (4 Bft) 94,03 %
21.08.2016 13:00 18,8 C 22,5 C 20,5 C 79 % 0 lf 1016,0 hPa 0,0 l/m 0,67 h 0,00 h 519 W/m 31,6 km/h (5 Bft) 97,72 %
21.08.2016 14:00 19,0 C 21,1 C 20,1 C 78 % 0 lf 1016,4 hPa 0,0 l/m 0,33 h 0,10 h 331 W/m 28,0 km/h (4 Bft) 96,54 %
21.08.2016 15:00 19,2 C 20,1 C 18,7 C 77 % 3 lf 1016,8 hPa 0,0 l/m 0,03 h 0,30 h 200 W/m 27,5 km/h (4 Bft) 94,35 %
21.08.2016 16:00 18,5 C 18,0 C 16,5 C 84 % 11 lf 1017,3 hPa 0,4 l/m 0,20 h 0,50 h 216 W/m 20,3 km/h (4 Bft) 97,66 %
21.08.2016 17:00 19,1 C 21,7 C 17,9 C 84 % 1 lf 1017,8 hPa 0,0 l/m 0,80 h 0,00 h 417 W/m 20,6 km/h (4 Bft) 96,52 %
21.08.2016 18:00 19,0 C 19,3 C 17,6 C 82 % 0 lf 1018,4 hPa 0,0 l/m 0,47 h 0,00 h 194 W/m 23,9 km/h (4 Bft) 95,74 %
21.08.2016 19:00 17,9 C 17,8 C 16,4 C 87 % 1 lf 1019,0 hPa 0,0 l/m 0,27 h 0,13 h 84 W/m 16,7 km/h (3 Bft) 95,39 %
21.08.2016 20:00 17,2 C 16,7 C 15,2 C 90 % 1 lf 1019,6 hPa 0,0 l/m 0,40 h 0,00 h 21 W/m 12,4 km/h (3 Bft) 97,87 %
21.08.2016 21:00 16,5 C 15,9 C 14,4 C 91 % 2 lf 1020,5 hPa 0,0 l/m 0,00 h 0,00 h 5 W/m 11,5 km/h (2 Bft) 95,64 %
21.08.2016 22:00 16,1 C 15,7 C 14,3 C 93 % 2 lf 1021,1 hPa 0,0 l/m 0,00 h 0,00 h 5 W/m 13,9 km/h (3 Bft) 95,27 %
21.08.2016 23:00 15,9 C 15,6 C 14,0 C 94 % 2 lf 1021,2 hPa 0,0 l/m 0,00 h 0,00 h 5 W/m 14,3 km/h (3 Bft) 96,58 %
Min-Datum _ 16.08.16 16.08.16 16.08.16 18.08.16 15.08.16 18.08.16 - - - - 15.08.16 18.08.16
_ Min-Zeit 06:40 05:22 05:50 15:44 09:04 17:26 - - - - 01:10 04:05
Minimum _ 10,6 C 9,4 C 8,3 C 44 % 0 lf 1007,0 hPa - - - - 0,0 km/h (0 Bft) 4,76 %
Max-Datum _ 18.08.16 18.08.16 18.08.16 16.08.16 16.08.16 15.08.16 20.08.16 15.08.16 19.08.16 16.08.16 21.08.16 15.08.16
_ Max-Zeit 14:48 13:34 15:12 08:02 05:12 02:14 20:14 07:42 16:32 12:58 09:36 01:52
Maximum _ 28,3 C 39,4 C 36,7 C 96 % 15 lf 1024,1 hPa 1,2 l/m 0,03 h 0,03 h 1435 W/m 43,9 km/h
SW (6 Bft)
100,00 %
Durchschnitt _ 18,9 C 20,5 C 18,0 C 74 % 1 lf 1013,9 hPa #2,0 l/m #65:47 h #5:06 h 283 W/m 11,9 km/h (2 Bft) 96,07 %
© 2016 W. Hausmann